sensor_id;sensor_type;location;lat;lon;timestamp;pressure;altitude;pressure_sealevel;temperature;humidity
27685;BME280;46113;50.130;8.526;2023-07-08T00:00:38;99278.50;;;13.87;56.04
27685;BME280;46113;50.130;8.526;2023-07-08T00:03:05;99279.13;;;13.91;56.23
27685;BME280;46113;50.130;8.526;2023-07-08T00:05:32;99282.56;;;13.67;52.78
27685;BME280;46113;50.130;8.526;2023-07-08T00:07:59;99275.53;;;13.79;54.00
27685;BME280;46113;50.130;8.526;2023-07-08T00:10:27;99283.28;;;13.82;55.75
27685;BME280;46113;50.130;8.526;2023-07-08T00:12:56;99283.97;;;13.47;53.28
27685;BME280;46113;50.130;8.526;2023-07-08T00:15:29;99283.53;;;13.53;56.17
27685;BME280;46113;50.130;8.526;2023-07-08T00:17:56;99289.81;;;13.52;55.05
27685;BME280;46113;50.130;8.526;2023-07-08T00:20:34;99280.22;;;13.62;56.72
27685;BME280;46113;50.130;8.526;2023-07-08T00:23:01;99280.88;;;13.53;55.79
27685;BME280;46113;50.130;8.526;2023-07-08T00:25:29;99286.09;;;13.55;56.09
27685;BME280;46113;50.130;8.526;2023-07-08T00:27:56;99276.97;;;13.46;55.78
27685;BME280;46113;50.130;8.526;2023-07-08T00:30:30;99273.97;;;13.37;55.57
27685;BME280;46113;50.130;8.526;2023-07-08T00:32:58;99264.22;;;13.38;54.54
27685;BME280;46113;50.130;8.526;2023-07-08T00:35:33;99262.72;;;13.21;54.72
27685;BME280;46113;50.130;8.526;2023-07-08T00:38:01;99263.03;;;13.29;54.60
27685;BME280;46113;50.130;8.526;2023-07-08T00:40:29;99268.78;;;13.23;55.23
27685;BME280;46113;50.130;8.526;2023-07-08T00:43:00;99258.56;;;13.17;54.25
27685;BME280;46113;50.130;8.526;2023-07-08T00:45:45;99262.94;;;13.18;54.38
27685;BME280;46113;50.130;8.526;2023-07-08T00:48:33;99261.13;;;13.18;54.37
27685;BME280;46113;50.130;8.526;2023-07-08T00:51:01;99260.50;;;13.15;54.97
27685;BME280;46113;50.130;8.526;2023-07-08T00:53:32;99266.66;;;13.15;55.57
27685;BME280;46113;50.130;8.526;2023-07-08T00:56:04;99260.28;;;13.18;56.21
27685;BME280;46113;50.130;8.526;2023-07-08T00:58:46;99262.19;;;13.16;56.31
27685;BME280;46113;50.130;8.526;2023-07-08T01:01:16;99269.25;;;13.02;56.23
27685;BME280;46113;50.130;8.526;2023-07-08T01:03:54;99271.19;;;13.00;55.63
27685;BME280;46113;50.130;8.526;2023-07-08T01:06:24;99272.97;;;12.86;55.37
27685;BME280;46113;50.130;8.526;2023-07-08T01:09:03;99268.81;;;12.95;57.18
27685;BME280;46113;50.130;8.526;2023-07-08T01:11:34;99262.88;;;12.92;55.16
27685;BME280;46113;50.130;8.526;2023-07-08T01:14:04;99256.09;;;13.00;55.28
27685;BME280;46113;50.130;8.526;2023-07-08T01:16:33;99253.13;;;13.05;56.46
27685;BME280;46113;50.130;8.526;2023-07-08T01:19:01;99261.91;;;12.93;57.26
27685;BME280;46113;50.130;8.526;2023-07-08T01:23:59;99260.63;;;12.72;56.48
27685;BME280;46113;50.130;8.526;2023-07-08T01:26:27;99256.38;;;12.70;54.85
27685;BME280;46113;50.130;8.526;2023-07-08T01:28:56;99249.03;;;12.73;55.67
27685;BME280;46113;50.130;8.526;2023-07-08T01:31:23;99255.78;;;12.52;55.07
27685;BME280;46113;50.130;8.526;2023-07-08T01:33:52;99257.53;;;12.66;56.40
27685;BME280;46113;50.130;8.526;2023-07-08T01:36:19;99254.31;;;12.60;56.29
27685;BME280;46113;50.130;8.526;2023-07-08T01:38:46;99256.38;;;12.70;56.57
27685;BME280;46113;50.130;8.526;2023-07-08T01:41:15;99256.09;;;12.47;56.48
27685;BME280;46113;50.130;8.526;2023-07-08T01:43:43;99258.00;;;12.45;55.59
27685;BME280;46113;50.130;8.526;2023-07-08T01:46:24;99254.41;;;12.59;54.42
27685;BME280;46113;50.130;8.526;2023-07-08T01:48:54;99252.41;;;12.63;55.75
27685;BME280;46113;50.130;8.526;2023-07-08T01:51:24;99255.88;;;12.50;55.91
27685;BME280;46113;50.130;8.526;2023-07-08T01:53:52;99257.06;;;12.59;57.14
27685;BME280;46113;50.130;8.526;2023-07-08T01:56:18;99256.84;;;12.49;56.26
27685;BME280;46113;50.130;8.526;2023-07-08T01:58:46;99250.59;;;12.50;55.09
27685;BME280;46113;50.130;8.526;2023-07-08T02:01:12;99252.47;;;12.48;56.05
27685;BME280;46113;50.130;8.526;2023-07-08T02:03:39;99250.31;;;12.40;56.00
27685;BME280;46113;50.130;8.526;2023-07-08T02:06:10;99238.47;;;12.46;57.16
27685;BME280;46113;50.130;8.526;2023-07-08T02:08:37;99248.88;;;12.49;56.53
27685;BME280;46113;50.130;8.526;2023-07-08T02:11:03;99243.78;;;12.46;56.62
27685;BME280;46113;50.130;8.526;2023-07-08T02:13:30;99243.88;;;12.17;56.54
27685;BME280;46113;50.130;8.526;2023-07-08T02:15:57;99252.00;;;12.28;57.35
27685;BME280;46113;50.130;8.526;2023-07-08T02:18:25;99242.38;;;12.13;56.06
27685;BME280;46113;50.130;8.526;2023-07-08T02:20:52;99248.03;;;12.21;58.15
27685;BME280;46113;50.130;8.526;2023-07-08T02:23:19;99247.78;;;12.11;57.23
27685;BME280;46113;50.130;8.526;2023-07-08T02:25:53;99242.63;;;12.23;57.06
27685;BME280;46113;50.130;8.526;2023-07-08T02:28:20;99243.22;;;12.13;56.75
27685;BME280;46113;50.130;8.526;2023-07-08T02:30:47;99246.28;;;11.92;57.17
27685;BME280;46113;50.130;8.526;2023-07-08T02:33:14;99253.38;;;11.92;56.94
27685;BME280;46113;50.130;8.526;2023-07-08T02:35:44;99254.16;;;11.79;57.53
27685;BME280;46113;50.130;8.526;2023-07-08T02:38:12;99259.84;;;11.88;58.11
27685;BME280;46113;50.130;8.526;2023-07-08T02:40:39;99257.44;;;11.98;56.42
27685;BME280;46113;50.130;8.526;2023-07-08T02:43:06;99254.34;;;12.05;57.68
27685;BME280;46113;50.130;8.526;2023-07-08T02:45:33;99252.63;;;11.90;56.84
27685;BME280;46113;50.130;8.526;2023-07-08T02:47:59;99257.34;;;11.99;57.22
27685;BME280;46113;50.130;8.526;2023-07-08T02:50:26;99256.97;;;12.05;57.85
27685;BME280;46113;50.130;8.526;2023-07-08T02:52:53;99254.34;;;12.05;57.97
27685;BME280;46113;50.130;8.526;2023-07-08T02:55:20;99252.47;;;11.78;56.62
27685;BME280;46113;50.130;8.526;2023-07-08T02:57:46;99253.88;;;11.70;57.99
27685;BME280;46113;50.130;8.526;2023-07-08T03:00:13;99256.41;;;11.86;57.33
27685;BME280;46113;50.130;8.526;2023-07-08T03:02:41;99263.63;;;11.84;57.70
27685;BME280;46113;50.130;8.526;2023-07-08T03:05:08;99255.59;;;11.85;58.24
27685;BME280;46113;50.130;8.526;2023-07-08T03:07:35;99260.78;;;11.87;57.84
27685;BME280;46113;50.130;8.526;2023-07-08T03:10:02;99253.41;;;11.77;57.54
27685;BME280;46113;50.130;8.526;2023-07-08T03:12:30;99260.69;;;11.88;58.24
27685;BME280;46113;50.130;8.526;2023-07-08T03:14:57;99265.88;;;11.90;58.19
27685;BME280;46113;50.130;8.526;2023-07-08T03:17:24;99257.97;;;11.61;57.87
27685;BME280;46113;50.130;8.526;2023-07-08T03:19:50;99266.22;;;11.71;57.74
27685;BME280;46113;50.130;8.526;2023-07-08T03:22:17;99280.50;;;11.68;56.17
27685;BME280;46113;50.130;8.526;2023-07-08T03:24:44;99275.19;;;11.68;57.58
27685;BME280;46113;50.130;8.526;2023-07-08T03:27:17;99277.38;;;11.76;57.82
27685;BME280;46113;50.130;8.526;2023-07-08T03:29:48;99282.94;;;11.71;57.86
27685;BME280;46113;50.130;8.526;2023-07-08T03:32:17;99284.19;;;11.80;57.85
27685;BME280;46113;50.130;8.526;2023-07-08T03:34:44;99294.56;;;11.98;57.56
27685;BME280;46113;50.130;8.526;2023-07-08T03:37:11;99287.19;;;11.88;57.63
27685;BME280;46113;50.130;8.526;2023-07-08T03:39:37;99297.94;;;12.00;57.80
27685;BME280;46113;50.130;8.526;2023-07-08T03:42:04;99296.00;;;11.89;57.52
27685;BME280;46113;50.130;8.526;2023-07-08T03:44:31;99290.94;;;11.99;57.08
27685;BME280;46113;50.130;8.526;2023-07-08T03:46:59;99296.91;;;12.02;58.03
27685;BME280;46113;50.130;8.526;2023-07-08T03:49:26;99306.03;;;11.84;56.14
27685;BME280;46113;50.130;8.526;2023-07-08T03:51:54;99313.97;;;11.98;56.21
27685;BME280;46113;50.130;8.526;2023-07-08T03:54:23;99306.94;;;11.97;56.95
27685;BME280;46113;50.130;8.526;2023-07-08T03:56:52;99306.59;;;11.89;57.51
27685;BME280;46113;50.130;8.526;2023-07-08T03:59:22;99304.72;;;12.05;57.57
27685;BME280;46113;50.130;8.526;2023-07-08T04:01:49;99310.16;;;12.17;57.73
27685;BME280;46113;50.130;8.526;2023-07-08T04:04:16;99304.41;;;12.10;57.92
27685;BME280;46113;50.130;8.526;2023-07-08T04:06:44;99303.44;;;12.26;57.76
27685;BME280;46113;50.130;8.526;2023-07-08T04:09:12;99299.88;;;12.67;56.72
27685;BME280;46113;50.130;8.526;2023-07-08T04:11:39;99293.00;;;12.78;55.62
27685;BME280;46113;50.130;8.526;2023-07-08T04:14:06;99302.78;;;12.90;56.01
27685;BME280;46113;50.130;8.526;2023-07-08T04:16:44;99302.69;;;12.92;54.85
27685;BME280;46113;50.130;8.526;2023-07-08T04:19:13;99301.88;;;13.04;54.34
27685;BME280;46113;50.130;8.526;2023-07-08T04:21:43;99300.34;;;13.15;53.84
27685;BME280;46113;50.130;8.526;2023-07-08T04:24:11;99303.84;;;13.41;55.47
27685;BME280;46113;50.130;8.526;2023-07-08T04:26:39;99303.19;;;13.50;55.33
27685;BME280;46113;50.130;8.526;2023-07-08T04:29:11;99305.84;;;13.63;54.79
27685;BME280;46113;50.130;8.526;2023-07-08T04:31:38;99297.25;;;13.47;53.24
27685;BME280;46113;50.130;8.526;2023-07-08T04:34:05;99291.34;;;13.94;52.88
27685;BME280;46113;50.130;8.526;2023-07-08T04:36:33;99291.75;;;14.13;52.78
27685;BME280;46113;50.130;8.526;2023-07-08T04:39:02;99293.44;;;14.14;52.08
27685;BME280;46113;50.130;8.526;2023-07-08T04:41:30;99283.38;;;14.55;51.75
27685;BME280;46113;50.130;8.526;2023-07-08T04:43:57;99283.97;;;14.83;50.13
27685;BME280;46113;50.130;8.526;2023-07-08T04:49:17;99279.75;;;15.28;49.80
27685;BME280;46113;50.130;8.526;2023-07-08T04:51:44;99285.59;;;15.68;49.17
27685;BME280;46113;50.130;8.526;2023-07-08T04:54:11;99286.06;;;15.84;48.14
27685;BME280;46113;50.130;8.526;2023-07-08T04:56:42;99290.00;;;16.36;47.07
27685;BME280;46113;50.130;8.526;2023-07-08T04:59:11;99287.00;;;16.62;47.41
27685;BME280;46113;50.130;8.526;2023-07-08T05:01:38;99294.69;;;16.88;46.40
27685;BME280;46113;50.130;8.526;2023-07-08T05:04:06;99292.69;;;17.23;45.95
27685;BME280;46113;50.130;8.526;2023-07-08T05:06:34;99292.13;;;16.86;46.46
27685;BME280;46113;50.130;8.526;2023-07-08T05:09:01;99298.38;;;17.39;45.41
27685;BME280;46113;50.130;8.526;2023-07-08T05:11:29;99297.13;;;17.65;44.69
27685;BME280;46113;50.130;8.526;2023-07-08T05:13:56;99299.53;;;17.46;45.88
27685;BME280;46113;50.130;8.526;2023-07-08T05:16:23;99297.25;;;17.94;44.38
27685;BME280;46113;50.130;8.526;2023-07-08T05:18:50;99291.78;;;18.16;43.96
27685;BME280;46113;50.130;8.526;2023-07-08T05:21:18;99296.06;;;18.28;43.85
27685;BME280;46113;50.130;8.526;2023-07-08T05:23:47;99297.75;;;18.19;44.04
27685;BME280;46113;50.130;8.526;2023-07-08T05:26:16;99297.34;;;17.83;44.93
27685;BME280;46113;50.130;8.526;2023-07-08T05:46:25;99278.72;;;19.69;42.14
27685;BME280;46113;50.130;8.526;2023-07-08T05:49:10;99284.88;;;19.51;38.21
27685;BME280;46113;50.130;8.526;2023-07-08T05:52:03;99280.56;;;20.43;40.49
27685;BME280;46113;50.130;8.526;2023-07-08T05:54:35;99286.72;;;20.89;36.91
27685;BME280;46113;50.130;8.526;2023-07-08T05:57:05;99286.56;;;20.91;35.50
27685;BME280;46113;50.130;8.526;2023-07-08T05:59:38;99285.19;;;20.87;35.89
27685;BME280;46113;50.130;8.526;2023-07-08T06:02:09;99285.94;;;21.50;36.13
27685;BME280;46113;50.130;8.526;2023-07-08T06:04:57;99292.41;;;21.58;34.46
27685;BME280;46113;50.130;8.526;2023-07-08T06:10:55;99278.28;;;21.99;34.06
27685;BME280;46113;50.130;8.526;2023-07-08T06:14:12;99298.66;;;22.69;34.10
27685;BME280;46113;50.130;8.526;2023-07-08T06:20:53;99286.13;;;22.43;32.99
27685;BME280;46113;50.130;8.526;2023-07-08T06:23:41;99287.59;;;22.21;31.72
27685;BME280;46113;50.130;8.526;2023-07-08T06:26:17;99284.00;;;22.72;31.18
27685;BME280;46113;50.130;8.526;2023-07-08T06:28:46;99274.72;;;22.49;32.27
27685;BME280;46113;50.130;8.526;2023-07-08T06:31:15;99267.16;;;22.78;31.83
27685;BME280;46113;50.130;8.526;2023-07-08T06:33:46;99279.97;;;22.68;32.49
27685;BME280;46113;50.130;8.526;2023-07-08T06:36:32;99278.59;;;22.97;30.79
27685;BME280;46113;50.130;8.526;2023-07-08T06:48:40;99284.56;;;23.57;30.24
27685;BME280;46113;50.130;8.526;2023-07-08T06:51:42;99290.28;;;24.11;30.38
27685;BME280;46113;50.130;8.526;2023-07-08T07:18:24;99309.63;;;27.02;25.94
27685;BME280;46113;50.130;8.526;2023-07-08T07:27:34;99303.19;;;29.19;23.65
27685;BME280;46113;50.130;8.526;2023-07-08T07:30:20;99310.53;;;29.91;22.39
27685;BME280;46113;50.130;8.526;2023-07-08T07:33:00;99314.03;;;30.83;22.77
27685;BME280;46113;50.130;8.526;2023-07-08T07:35:45;99310.94;;;32.05;21.09
27685;BME280;46113;50.130;8.526;2023-07-08T07:38:36;99311.69;;;32.43;20.48
27685;BME280;46113;50.130;8.526;2023-07-08T07:41:11;99305.06;;;31.01;20.72
27685;BME280;46113;50.130;8.526;2023-07-08T07:43:41;99311.03;;;30.27;22.55
27685;BME280;46113;50.130;8.526;2023-07-08T07:46:33;99309.22;;;29.28;23.20
27685;BME280;46113;50.130;8.526;2023-07-08T07:49:00;99305.03;;;29.32;23.30
27685;BME280;46113;50.130;8.526;2023-07-08T07:51:27;99304.63;;;31.04;22.12
27685;BME280;46113;50.130;8.526;2023-07-08T07:53:56;99305.91;;;31.46;21.01
27685;BME280;46113;50.130;8.526;2023-07-08T07:56:24;99311.06;;;32.41;20.34
27685;BME280;46113;50.130;8.526;2023-07-08T07:58:52;99314.78;;;32.47;19.98
27685;BME280;46113;50.130;8.526;2023-07-08T08:01:19;99310.53;;;32.20;20.45
27685;BME280;46113;50.130;8.526;2023-07-08T08:03:48;99308.50;;;34.60;18.31
27685;BME280;46113;50.130;8.526;2023-07-08T08:06:17;99317.34;;;34.33;18.54
27685;BME280;46113;50.130;8.526;2023-07-08T08:08:45;99319.06;;;34.51;18.01
27685;BME280;46113;50.130;8.526;2023-07-08T08:11:12;99317.78;;;33.60;19.14
27685;BME280;46113;50.130;8.526;2023-07-08T08:13:39;99316.31;;;32.97;19.88
27685;BME280;46113;50.130;8.526;2023-07-08T08:16:05;99317.56;;;33.37;18.85
27685;BME280;46113;50.130;8.526;2023-07-08T08:18:32;99309.16;;;34.67;18.15
27685;BME280;46113;50.130;8.526;2023-07-08T08:20:59;99297.19;;;33.21;18.85
27685;BME280;46113;50.130;8.526;2023-07-08T08:23:26;99300.25;;;33.01;19.65
27685;BME280;46113;50.130;8.526;2023-07-08T08:25:53;99301.16;;;32.09;19.80
27685;BME280;46113;50.130;8.526;2023-07-08T08:28:20;99302.44;;;30.56;20.76
27685;BME280;46113;50.130;8.526;2023-07-08T08:30:50;99307.44;;;31.42;20.87
27685;BME280;46113;50.130;8.526;2023-07-08T08:33:18;99299.13;;;31.30;20.87
27685;BME280;46113;50.130;8.526;2023-07-08T08:35:44;99299.41;;;31.66;20.61
27685;BME280;46113;50.130;8.526;2023-07-08T08:38:12;99298.81;;;32.44;20.83
27685;BME280;46113;50.130;8.526;2023-07-08T08:40:40;99298.66;;;32.27;19.59
27685;BME280;46113;50.130;8.526;2023-07-08T08:43:14;99303.44;;;31.63;19.37
27685;BME280;46113;50.130;8.526;2023-07-08T08:45:50;99303.13;;;32.94;19.47
27685;BME280;46113;50.130;8.526;2023-07-08T08:48:20;99299.88;;;32.85;19.54
27685;BME280;46113;50.130;8.526;2023-07-08T08:50:53;99303.88;;;32.59;19.01
27685;BME280;46113;50.130;8.526;2023-07-08T08:53:25;99305.56;;;32.29;19.67
27685;BME280;46113;50.130;8.526;2023-07-08T08:56:02;99305.25;;;31.69;19.76
27685;BME280;46113;50.130;8.526;2023-07-08T08:58:51;99304.28;;;30.94;21.08
27685;BME280;46113;50.130;8.526;2023-07-08T09:01:21;99317.38;;;30.14;21.76
27685;BME280;46113;50.130;8.526;2023-07-08T09:03:52;99316.25;;;29.76;22.02
27685;BME280;46113;50.130;8.526;2023-07-08T09:06:25;99312.56;;;29.30;22.24
27685;BME280;46113;50.130;8.526;2023-07-08T09:08:54;99307.50;;;28.59;23.09
27685;BME280;46113;50.130;8.526;2023-07-08T09:14:14;99316.53;;;28.04;23.78
27685;BME280;46113;50.130;8.526;2023-07-08T09:24:45;99312.16;;;28.03;24.24
27685;BME280;46113;50.130;8.526;2023-07-08T09:27:15;99313.09;;;28.31;24.55
27685;BME280;46113;50.130;8.526;2023-07-08T09:29:43;99314.06;;;28.09;24.69
27685;BME280;46113;50.130;8.526;2023-07-08T09:32:24;99303.19;;;28.09;24.50
27685;BME280;46113;50.130;8.526;2023-07-08T09:34:55;99300.06;;;28.12;25.17
27685;BME280;46113;50.130;8.526;2023-07-08T09:37:28;99305.47;;;27.64;25.15
27685;BME280;46113;50.130;8.526;2023-07-08T09:39:58;99306.53;;;28.05;25.62
27685;BME280;46113;50.130;8.526;2023-07-08T09:42:31;99300.25;;;28.11;24.81
27685;BME280;46113;50.130;8.526;2023-07-08T09:45:11;99306.69;;;28.72;24.16
27685;BME280;46113;50.130;8.526;2023-07-08T09:47:38;99299.44;;;29.86;24.33
27685;BME280;46113;50.130;8.526;2023-07-08T09:50:28;99301.50;;;31.26;22.21
27685;BME280;46113;50.130;8.526;2023-07-08T09:52:57;99299.25;;;31.79;22.15
27685;BME280;46113;50.130;8.526;2023-07-08T09:55:26;99301.00;;;31.74;20.51
27685;BME280;46113;50.130;8.526;2023-07-08T09:57:56;99300.38;;;31.72;20.74
27685;BME280;46113;50.130;8.526;2023-07-08T10:00:39;99297.13;;;30.93;21.76
27685;BME280;46113;50.130;8.526;2023-07-08T10:03:17;99299.63;;;30.37;22.16
27685;BME280;46113;50.130;8.526;2023-07-08T10:05:47;99291.66;;;30.74;22.57
27685;BME280;46113;50.130;8.526;2023-07-08T10:08:18;99295.09;;;30.24;21.93
27685;BME280;46113;50.130;8.526;2023-07-08T10:10:48;99304.13;;;30.89;22.23
27685;BME280;46113;50.130;8.526;2023-07-08T10:13:24;99293.97;;;30.38;22.70
27685;BME280;46113;50.130;8.526;2023-07-08T10:16:01;99293.91;;;30.13;21.96
27685;BME280;46113;50.130;8.526;2023-07-08T10:18:42;99294.97;;;30.05;22.23
27685;BME280;46113;50.130;8.526;2023-07-08T10:26:32;99291.38;;;29.59;22.55
27685;BME280;46113;50.130;8.526;2023-07-08T10:29:29;99294.53;;;29.36;21.73
27685;BME280;46113;50.130;8.526;2023-07-08T10:52:38;99283.06;;;29.13;21.48
27685;BME280;46113;50.130;8.526;2023-07-08T10:58:09;99288.09;;;28.69;21.51
27685;BME280;46113;50.130;8.526;2023-07-08T11:00:57;99281.38;;;28.65;22.79
27685;BME280;46113;50.130;8.526;2023-07-08T11:06:44;99270.09;;;27.92;23.28
27685;BME280;46113;50.130;8.526;2023-07-08T11:09:36;99267.06;;;28.29;23.31
27685;BME280;46113;50.130;8.526;2023-07-08T11:12:22;99262.88;;;28.33;22.62
27685;BME280;46113;50.130;8.526;2023-07-08T11:14:59;99262.69;;;28.28;22.30
27685;BME280;46113;50.130;8.526;2023-07-08T11:17:41;99260.31;;;27.98;23.77
27685;BME280;46113;50.130;8.526;2023-07-08T11:20:54;99253.06;;;28.25;24.72
27685;BME280;46113;50.130;8.526;2023-07-08T11:23:33;99256.06;;;27.95;23.94
27685;BME280;46113;50.130;8.526;2023-07-08T11:28:54;99251.78;;;28.08;23.24
27685;BME280;46113;50.130;8.526;2023-07-08T20:09:36;99301.94;;;20.81;48.01
27685;BME280;46113;50.130;8.526;2023-07-08T20:13:01;99311.47;;;20.57;56.35
27685;BME280;46113;50.130;8.526;2023-07-08T20:16:25;99304.13;;;20.31;56.41
27685;BME280;46113;50.130;8.526;2023-07-08T20:18:53;99308.31;;;20.15;56.22
27685;BME280;46113;50.130;8.526;2023-07-08T20:21:25;99308.34;;;20.05;55.00
27685;BME280;46113;50.130;8.526;2023-07-08T20:23:52;99315.94;;;19.92;53.61
27685;BME280;46113;50.130;8.526;2023-07-08T20:26:29;99319.19;;;19.85;55.98
27685;BME280;46113;50.130;8.526;2023-07-08T20:28:58;99319.19;;;19.85;56.70
27685;BME280;46113;50.130;8.526;2023-07-08T20:31:25;99322.56;;;19.78;55.08
27685;BME280;46113;50.130;8.526;2023-07-08T20:33:53;99322.91;;;19.75;56.24
27685;BME280;46113;50.130;8.526;2023-07-08T20:36:22;99332.28;;;19.61;51.78
27685;BME280;46113;50.130;8.526;2023-07-08T20:38:50;99334.09;;;19.60;56.15
27685;BME280;46113;50.130;8.526;2023-07-08T20:41:17;99334.81;;;19.52;56.55
27685;BME280;46113;50.130;8.526;2023-07-08T20:43:44;99331.59;;;19.39;57.01
27685;BME280;46113;50.130;8.526;2023-07-08T20:46:22;99342.91;;;19.32;56.62
27685;BME280;46113;50.130;8.526;2023-07-08T20:48:52;99341.66;;;19.27;55.11
27685;BME280;46113;50.130;8.526;2023-07-08T20:51:20;99350.28;;;19.21;55.43
27685;BME280;46113;50.130;8.526;2023-07-08T20:53:47;99354.22;;;19.16;57.36
27685;BME280;46113;50.130;8.526;2023-07-08T20:56:26;99368.06;;;19.12;57.29
27685;BME280;46113;50.130;8.526;2023-07-08T20:58:54;99358.28;;;19.01;56.29
27685;BME280;46113;50.130;8.526;2023-07-08T21:01:21;99365.63;;;18.89;57.60
27685;BME280;46113;50.130;8.526;2023-07-08T21:03:48;99360.44;;;18.87;58.19
27685;BME280;46113;50.130;8.526;2023-07-08T21:06:22;99368.31;;;18.79;56.74
27685;BME280;46113;50.130;8.526;2023-07-08T21:08:50;99362.09;;;18.78;56.96
27685;BME280;46113;50.130;8.526;2023-07-08T21:11:17;99358.59;;;18.78;58.05
27685;BME280;46113;50.130;8.526;2023-07-08T21:13:44;99365.91;;;18.76;59.18
27685;BME280;46113;50.130;8.526;2023-07-08T21:16:16;99353.22;;;18.78;58.87
27685;BME280;46113;50.130;8.526;2023-07-08T21:18:43;99355.31;;;18.64;58.00
27685;BME280;46113;50.130;8.526;2023-07-08T21:21:10;99348.28;;;18.63;58.08
27685;BME280;46113;50.130;8.526;2023-07-08T21:23:38;99342.63;;;18.57;56.56
27685;BME280;46113;50.130;8.526;2023-07-08T21:26:27;99348.56;;;18.50;55.81
27685;BME280;46113;50.130;8.526;2023-07-08T21:29:01;99342.06;;;18.53;57.64
27685;BME280;46113;50.130;8.526;2023-07-08T21:31:30;99336.72;;;18.53;59.69
27685;BME280;46113;50.130;8.526;2023-07-08T21:33:57;99338.66;;;18.41;57.41
27685;BME280;46113;50.130;8.526;2023-07-08T21:36:29;99342.91;;;18.44;59.62
27685;BME280;46113;50.130;8.526;2023-07-08T21:38:59;99340.06;;;18.35;58.52
27685;BME280;46113;50.130;8.526;2023-07-08T21:41:30;99349.31;;;18.31;57.98
27685;BME280;46113;50.130;8.526;2023-07-08T21:43:57;99354.94;;;18.28;58.25
27685;BME280;46113;50.130;8.526;2023-07-08T21:46:24;99358.13;;;18.12;56.93
27685;BME280;46113;50.130;8.526;2023-07-08T21:48:51;99353.19;;;18.07;58.62
27685;BME280;46113;50.130;8.526;2023-07-08T21:51:28;99357.34;;;17.90;56.04
27685;BME280;46113;50.130;8.526;2023-07-08T21:53:56;99358.13;;;18.02;57.67
27685;BME280;46113;50.130;8.526;2023-07-08T21:56:23;99355.38;;;17.92;57.02
27685;BME280;46113;50.130;8.526;2023-07-08T21:58:54;99364.59;;;17.99;58.60
27685;BME280;46113;50.130;8.526;2023-07-08T22:01:24;99369.50;;;17.94;58.50
27685;BME280;46113;50.130;8.526;2023-07-08T22:03:52;99376.91;;;17.91;57.46
27685;BME280;46113;50.130;8.526;2023-07-08T22:06:20;99379.31;;;17.84;57.46
27685;BME280;46113;50.130;8.526;2023-07-08T22:08:47;99387.72;;;17.79;57.68
27685;BME280;46113;50.130;8.526;2023-07-08T22:11:21;99393.16;;;17.68;56.06
27685;BME280;46113;50.130;8.526;2023-07-08T22:13:52;99384.59;;;17.74;58.82
27685;BME280;46113;50.130;8.526;2023-07-08T22:16:20;99381.47;;;17.69;58.73
27685;BME280;46113;50.130;8.526;2023-07-08T22:18:52;99372.41;;;17.60;59.07
27685;BME280;46113;50.130;8.526;2023-07-08T22:21:21;99371.56;;;17.59;59.14
27685;BME280;46113;50.130;8.526;2023-07-08T22:23:53;99379.00;;;17.56;59.01
27685;BME280;46113;50.130;8.526;2023-07-08T22:26:20;99371.97;;;17.55;57.32
27685;BME280;46113;50.130;8.526;2023-07-08T22:28:46;99370.50;;;17.51;57.06
27685;BME280;46113;50.130;8.526;2023-07-08T22:31:26;99376.44;;;17.54;57.88
27685;BME280;46113;50.130;8.526;2023-07-08T22:33:54;99375.97;;;17.49;55.60
27685;BME280;46113;50.130;8.526;2023-07-08T22:36:22;99371.66;;;17.79;56.83
27685;BME280;46113;50.130;8.526;2023-07-08T22:39:03;99369.56;;;17.83;56.61
27685;BME280;46113;50.130;8.526;2023-07-08T22:41:40;99370.41;;;17.83;54.80
27685;BME280;46113;50.130;8.526;2023-07-08T22:44:09;99366.50;;;17.87;56.23
27685;BME280;46113;50.130;8.526;2023-07-08T22:46:37;99368.00;;;17.80;55.35
27685;BME280;46113;50.130;8.526;2023-07-08T22:49:04;99369.97;;;17.78;56.29
27685;BME280;46113;50.130;8.526;2023-07-08T22:51:35;99372.06;;;17.74;55.18
27685;BME280;46113;50.130;8.526;2023-07-08T22:54:04;99370.97;;;17.77;55.99
27685;BME280;46113;50.130;8.526;2023-07-08T22:56:31;99372.31;;;17.71;55.53
27685;BME280;46113;50.130;8.526;2023-07-08T22:58:58;99370.69;;;17.80;56.71
27685;BME280;46113;50.130;8.526;2023-07-08T23:01:25;99377.00;;;17.79;57.50
27685;BME280;46113;50.130;8.526;2023-07-08T23:03:52;99364.22;;;17.83;57.15
27685;BME280;46113;50.130;8.526;2023-07-08T23:06:22;99375.91;;;17.82;56.81
27685;BME280;46113;50.130;8.526;2023-07-08T23:08:50;99374.22;;;17.81;56.90
27685;BME280;46113;50.130;8.526;2023-07-08T23:11:17;99367.44;;;17.77;56.91
27685;BME280;46113;50.130;8.526;2023-07-08T23:13:44;99362.81;;;17.79;55.36
27685;BME280;46113;50.130;8.526;2023-07-08T23:18:44;99367.53;;;17.65;57.26
27685;BME280;46113;50.130;8.526;2023-07-08T23:21:11;99368.56;;;17.53;56.10
27685;BME280;46113;50.130;8.526;2023-07-08T23:23:39;99375.72;;;17.52;56.79
27685;BME280;46113;50.130;8.526;2023-07-08T23:26:13;99368.03;;;17.38;56.91
27685;BME280;46113;50.130;8.526;2023-07-08T23:28:41;99377.28;;;17.33;56.09
27685;BME280;46113;50.130;8.526;2023-07-08T23:31:09;99366.00;;;17.30;57.14
27685;BME280;46113;50.130;8.526;2023-07-08T23:33:36;99371.94;;;17.33;56.13
27685;BME280;46113;50.130;8.526;2023-07-08T23:36:15;99370.91;;;17.25;56.78
27685;BME280;46113;50.130;8.526;2023-07-08T23:38:44;99372.53;;;17.16;57.15
27685;BME280;46113;50.130;8.526;2023-07-08T23:41:11;99383.72;;;17.09;56.22
27685;BME280;46113;50.130;8.526;2023-07-08T23:43:38;99380.41;;;17.17;56.26
27685;BME280;46113;50.130;8.526;2023-07-08T23:46:17;99385.50;;;17.20;56.27
27685;BME280;46113;50.130;8.526;2023-07-08T23:48:46;99387.00;;;17.13;56.78
27685;BME280;46113;50.130;8.526;2023-07-08T23:51:13;99380.91;;;17.11;56.38
27685;BME280;46113;50.130;8.526;2023-07-08T23:53:40;99384.19;;;17.15;56.73
27685;BME280;46113;50.130;8.526;2023-07-08T23:56:12;99381.91;;;17.10;57.07
27685;BME280;46113;50.130;8.526;2023-07-08T23:58:40;99378.84;;;17.15;56.03
